This is the latest recevied weather packets stored in our database for station/object CE3SUR-16. If no packets are shown the sender has not sent any weather packets the latest 1 day(s).
| Time | Temp. | Humidity | Pressure | Rain* | Wind** | Luminosity | Snow |
|---|---|---|---|---|---|---|---|
| 1778085540 | 18.89° C | 99% | 957.3 hPa | - | - | - | - |
| 1778078339 | 18.33° C | 87% | 956.2 hPa | - | - | - | - |
| 1778063969 | 14.44° C | 99% | 955.9 hPa | - | - | - | - |
| 1778062135 | 14.44° C | 99% | 955.5 hPa | - | - | - | - |
| 1778060377 | 14.44° C | 99% | 955.1 hPa | - | - | - | - |
| 1778060335 | 14.44° C | 99% | 955.1 hPa | - | - | - | - |
| 1778056734 | 14.44° C | 99% | 954.5 hPa | - | - | - | - |
| 1778054934 | 15° C | 99% | 954.6 hPa | - | - | - | - |
| 1778053134 | 15° C | 99% | 954.3 hPa | - | - | - | - |
| 1778051334 | 15.56° C | 99% | 954.2 hPa | - | - | - | - |
| 1778049628 | 16.11° C | 99% | 954.5 hPa | - | - | - | - |
| 1778047733 | 15.56° C | 99% | 954.6 hPa | - | - | - | - |
| 1778045933 | 16.11° C | 99% | 955 hPa | - | - | - | - |
| 1778042336 | 16.67° C | 99% | 955.1 hPa | - | - | - | - |
| 1778040536 | 16.67° C | 99% | 955.4 hPa | - | - | - | - |
| 1778038736 | 16.67° C | 99% | 955.5 hPa | - | - | - | - |
| 1778036935 | 16.67° C | 99% | 955.3 hPa | - | - | - | - |
| 1778033335 | 16.67° C | 99% | 955.4 hPa | - | - | - | - |
| 1778031535 | 17.22° C | 99% | 955.3 hPa | - | - | - | - |
| 1778029735 | 17.78° C | 98% | 955.6 hPa | - | - | - | - |
| 1778024334 | 18.89° C | 91% | 954.5 hPa | - | - | - | - |
| 1778013534 | 21.67° C | 67% | 952.6 hPa | - | - | - | - |
| 1778011734 | 22.22° C | 63% | 952.5 hPa | - | - | - | - |
| 1778004533 | 24.44° C | 51% | 951.9 hPa | - | - | - | - |
| 1778002733 | 24.44° C | 48% | 951.8 hPa | - | - | - | - |
* Rain since midnight (hover to see other rain measurements)
** Current wind speed in m/s (hover to see current wind gust speed)